Time;durP1;ratioP1;P1;durP2;ratioP2;P2;SDS_P1;SDS_P2;PMS_P1;PMS_P2;Temp;Humidity;BMP_temperature;BMP_pressure;BME280_temperature;BME280_humidity;BME280_pressure;Samples;Min_cycle;Max_cycle;Signal;HPM_P1;HPM_P2
2023/01/03 00:01:22;;;;;;;6.20;5.97;;;9.30;99.90;;;;;;4998822;28;20200;-78
2023/01/03 00:03:47;;;;;;;6.43;6.20;;;9.30;99.90;;;;;;4993329;28;20207;-76
2023/01/03 00:06:22;;;;;;;6.67;6.37;;;9.20;99.90;;;;;;4975036;28;20208;-78
2023/01/03 00:08:49;;;;;;;6.77;6.37;;;9.30;99.90;;;;;;4974000;28;20176;-77
2023/01/03 00:11:17;;;;;;;6.83;6.53;;;9.20;99.90;;;;;;5005034;28;21005;-77
2023/01/03 00:13:44;;;;;;;7.63;7.27;;;9.20;99.90;;;;;;4994325;28;20653;-78
2023/01/03 00:16:19;;;;;;;8.27;7.97;;;9.10;99.90;;;;;;4994290;28;20194;-78
2023/01/03 00:18:45;;;;;;;8.17;7.77;;;9.00;99.90;;;;;;4994867;28;20791;-77
2023/01/03 00:21:11;;;;;;;8.07;7.67;;;9.00;99.90;;;;;;4996189;28;20283;-77
2023/01/03 00:23:37;;;;;;;8.60;8.07;;;9.00;99.90;;;;;;4994863;28;20215;-77
2023/01/03 00:26:14;;;;;;;8.57;8.07;;;9.00;99.90;;;;;;5015719;28;20181;-76
2023/01/03 00:28:41;;;;;;;8.83;8.33;;;8.90;99.90;;;;;;4994564;28;20564;-78
2023/01/03 00:31:09;;;;;;;9.20;8.77;;;8.90;99.90;;;;;;4994424;28;20179;-78
2023/01/03 00:33:37;;;;;;;10.33;9.87;;;8.90;99.90;;;;;;5011886;28;20186;-78
2023/01/03 00:36:04;;;;;;;11.17;10.60;;;9.00;99.90;;;;;;5011583;28;20553;-78
2023/01/03 00:38:30;;;;;;;9.47;9.07;;;8.90;99.90;;;;;;5010661;28;20183;-78
2023/01/03 00:41:07;;;;;;;9.20;8.70;;;8.90;99.90;;;;;;5012182;28;20319;-77
2023/01/03 00:43:33;;;;;;;8.70;8.30;;;8.90;99.90;;;;;;4994044;28;20180;-78
2023/01/03 00:45:59;;;;;;;7.60;7.10;;;8.90;99.90;;;;;;5011573;28;20183;-78
2023/01/03 00:48:26;;;;;;;8.03;7.63;;;8.90;99.90;;;;;;4994376;28;20192;-78
2023/01/03 00:50:51;;;;;;;10.03;9.50;;;8.80;99.90;;;;;;4997648;28;20241;-78
2023/01/03 00:53:18;;;;;;;7.77;7.37;;;8.80;99.90;;;;;;5014086;28;20761;-77
2023/01/03 00:55:43;;;;;;;6.97;6.57;;;8.80;99.90;;;;;;5013651;28;20178;-78
2023/01/03 00:58:09;;;;;;;6.20;5.90;;;8.80;99.90;;;;;;5014184;28;20183;-78
2023/01/03 01:00:35;;;;;;;6.47;6.00;;;8.80;99.90;;;;;;4997120;28;20295;-77
2023/01/03 01:03:01;;;;;;;5.77;5.47;;;8.80;99.90;;;;;;5014760;28;20740;-77
2023/01/03 01:05:28;;;;;;;5.90;5.60;;;8.80;99.90;;;;;;5014214;28;20180;-79
2023/01/03 01:07:54;;;;;;;9.63;8.90;;;8.80;99.90;;;;;;4992924;28;20215;-78
2023/01/03 01:10:20;;;;;;;9.07;8.57;;;8.80;99.90;;;;;;4995710;28;20181;-79
2023/01/03 01:12:46;;;;;;;8.60;8.10;;;8.70;99.90;;;;;;4977907;28;20238;-79
2023/01/03 01:15:12;;;;;;;7.47;7.07;;;8.70;99.90;;;;;;4995428;28;20630;-79
2023/01/03 01:17:39;;;;;;;5.17;4.87;;;8.70;99.90;;;;;;4977226;28;20282;-79
2023/01/03 01:20:06;;;;;;;6.20;5.73;;;8.70;99.90;;;;;;4979417;28;20193;-79
2023/01/03 01:22:35;;;;;;;7.17;6.77;;;8.60;99.90;;;;;;4997313;28;20305;-79
2023/01/03 01:25:01;;;;;;;6.63;6.23;;;8.60;99.90;;;;;;4997515;28;20190;-79
2023/01/03 01:27:27;;;;;;;5.93;5.40;;;8.60;99.90;;;;;;4995981;28;20242;-79
2023/01/03 01:29:52;;;;;;;5.30;5.00;;;8.60;99.90;;;;;;4996916;28;20207;-79
2023/01/03 01:32:18;;;;;;;5.27;4.97;;;8.50;99.90;;;;;;4996932;28;20207;-78
2023/01/03 01:34:44;;;;;;;4.83;4.60;;;8.50;99.90;;;;;;5013791;28;20195;-79
2023/01/03 01:37:10;;;;;;;6.27;5.00;;;8.50;99.90;;;;;;5012668;28;20186;-81
2023/01/03 01:39:36;;;;;;;5.90;5.60;;;8.40;99.90;;;;;;4996853;28;20188;-78
2023/01/03 01:44:58;;;;;;;10.03;9.60;;;8.30;99.90;;;;;;5014219;28;20535;-78
2023/01/03 01:47:52;;;;;;;12.30;11.70;;;8.30;99.90;;;;;;4995457;28;20215;-79
2023/01/03 01:50:36;;;;;;;11.33;10.83;;;8.20;99.90;;;;;;5013523;28;20187;-78
2023/01/03 01:53:17;;;;;;;12.43;11.80;;;8.20;99.90;;;;;;4982687;28;20209;-79
2023/01/03 01:55:52;;;;;;;12.17;11.57;;;8.10;99.90;;;;;;4976851;28;20184;-78
2023/01/03 01:58:21;;;;;;;10.67;10.17;;;8.00;99.90;;;;;;4975929;28;20443;-79
2023/01/03 02:00:46;;;;;;;13.10;12.53;;;7.90;99.90;;;;;;4999425;28;20183;-77
2023/01/03 02:03:12;;;;;;;55.33;52.63;;;7.80;99.90;;;;;;5017447;28;20293;-78
2023/01/03 02:05:43;;;;;;;39.80;37.93;;;7.90;99.90;;;;;;5016765;28;20656;-78
2023/01/03 02:08:09;;;;;;;27.43;26.10;;;7.90;99.90;;;;;;4997692;28;20227;-80
2023/01/03 02:11:06;;;;;;;34.13;32.37;;;7.80;99.90;;;;;;5014115;28;20179;-79
2023/01/03 02:13:41;;;;;;;26.87;25.53;;;7.70;99.90;;;;;;5012879;28;20192;-80
2023/01/03 02:16:24;;;;;;;16.30;15.57;;;7.60;99.90;;;;;;5015539;28;20667;-79
2023/01/03 02:19:27;;;;;;;16.80;16.00;;;7.60;99.90;;;;;;4996479;28;20191;-79
2023/01/03 02:22:30;;;;;;;27.13;25.80;;;7.50;99.90;;;;;;4996160;28;20680;-79
2023/01/03 02:25:10;;;;;;;27.83;26.37;;;7.40;99.90;;;;;;4996182;28;20179;-79
2023/01/03 02:28:01;;;;;;;10.27;9.67;;;7.30;99.90;;;;;;5012695;28;20313;-79
2023/01/03 02:30:52;;;;;;;8.93;8.47;;;7.30;99.90;;;;;;5013676;28;20175;-79
2023/01/03 02:34:04;;;;;;;8.63;8.27;;;7.40;99.90;;;;;;4995910;28;20246;-79
2023/01/03 02:36:46;;;;;;;12.53;11.97;;;7.50;99.90;;;;;;5013463;28;20188;-79
2023/01/03 02:39:47;;;;;;;14.77;14.03;;;7.60;99.90;;;;;;5013659;28;20184;-79
2023/01/03 02:42:57;;;;;;;10.23;9.80;;;7.60;99.90;;;;;;4996103;28;20208;-79
2023/01/03 02:45:42;;;;;;;5.67;5.17;;;7.50;99.90;;;;;;5004545;28;20279;-79
2023/01/03 02:48:14;;;;;;;5.30;5.07;;;7.50;99.90;;;;;;5012452;28;20265;-78
2023/01/03 02:50:54;;;;;;;5.67;5.47;;;7.50;99.90;;;;;;4996010;28;20245;-79
2023/01/03 02:53:45;;;;;;;6.27;5.97;;;7.40;99.90;;;;;;4995838;28;20210;-78
2023/01/03 02:56:16;;;;;;;6.20;5.87;;;7.40;99.90;;;;;;4995549;28;20186;-78
2023/01/03 02:58:47;;;;;;;6.53;5.80;;;7.40;99.90;;;;;;5012832;28;20551;-78
2023/01/03 03:01:15;;;;;;;6.57;6.27;;;7.30;99.90;;;;;;5012954;28;20183;-79
2023/01/03 03:03:41;;;;;;;5.50;5.20;;;7.20;99.90;;;;;;5013539;28;20175;-78
2023/01/03 03:06:15;;;;;;;7.70;7.40;;;7.20;99.90;;;;;;4994554;28;20234;-79
2023/01/03 03:08:44;;;;;;;7.23;6.90;;;7.10;99.90;;;;;;5012036;28;20179;-79
2023/01/03 03:14:22;;;;;;;6.17;5.97;;;6.90;99.90;;;;;;5012656;28;20273;-79
2023/01/03 03:16:50;;;;;;;14.97;14.27;;;6.90;99.90;;;;;;4994430;28;20187;-79
2023/01/03 03:24:48;;;;;;;9.97;9.40;;;6.80;99.90;;;;;;4994775;28;20199;-78
2023/01/03 03:25:12;;;;;;;8.50;7.97;;;6.80;99.90;;;;;;5019857;28;20282;-77
2023/01/03 03:30:29;;;;;;;8.57;8.17;;;6.80;99.90;;;;;;5012372;28;20600;-79
2023/01/03 03:33:04;;;;;;;9.33;8.73;;;6.80;99.90;;;;;;4995976;28;20802;-78
2023/01/03 03:35:38;;;;;;;8.93;8.43;;;6.80;99.90;;;;;;5003030;28;20187;-77
2023/01/03 03:38:09;;;;;;;9.50;8.80;;;6.80;99.90;;;;;;5002238;28;20259;-77
2023/01/03 03:46:39;;;;;;;8.40;8.07;;;6.80;99.90;;;;;;5012843;28;20581;-78
2023/01/03 03:51:57;;;;;;;9.80;9.33;;;6.70;99.90;;;;;;5012439;28;20199;-78
2023/01/03 03:54:24;;;;;;;9.87;9.47;;;6.70;99.90;;;;;;4994939;28;20271;-79
2023/01/03 03:57:06;;;;;;;4.70;4.50;;;6.60;99.90;;;;;;4996178;28;20198;-77
2023/01/03 03:59:33;;;;;;;5.63;5.33;;;6.50;99.90;;;;;;5001472;28;20176;-78
2023/01/03 04:02:02;;;;;;;6.37;6.07;;;6.50;99.90;;;;;;4991706;28;20203;-78
2023/01/03 04:04:42;;;;;;;11.77;11.17;;;6.50;99.90;;;;;;4981188;28;20266;-79
2023/01/03 04:07:07;;;;;;;12.77;11.70;;;6.50;99.90;;;;;;4985798;28;20204;-77
2023/01/03 04:09:33;;;;;;;7.27;6.67;;;6.50;99.90;;;;;;4990687;28;20348;-79
2023/01/03 04:11:59;;;;;;;7.20;6.77;;;6.40;99.90;;;;;;4994090;28;20758;-79
2023/01/03 04:14:25;;;;;;;6.60;6.30;;;6.40;99.90;;;;;;4994625;28;20202;-79
2023/01/03 04:16:51;;;;;;;8.53;8.03;;;6.30;99.90;;;;;;4984833;28;20172;-79
2023/01/03 04:19:16;;;;;;;9.70;9.23;;;6.30;99.90;;;;;;4994541;28;20175;-80
2023/01/03 04:21:42;;;;;;;10.27;9.77;;;6.20;99.90;;;;;;4994843;28;20242;-79
2023/01/03 04:24:08;;;;;;;12.00;11.40;;;6.10;99.90;;;;;;4997090;28;20268;-79
2023/01/03 04:26:34;;;;;;;10.83;10.33;;;6.10;99.90;;;;;;5016175;28;20214;-78
2023/01/03 04:28:59;;;;;;;8.83;8.50;;;6.00;99.90;;;;;;4997413;28;20310;-78
2023/01/03 04:31:25;;;;;;;10.10;9.67;;;5.90;99.90;;;;;;4997887;28;20261;-76
2023/01/03 04:33:52;;;;;;;9.63;9.23;;;5.90;99.90;;;;;;4997714;28;20179;-77
2023/01/03 04:36:19;;;;;;;10.83;10.27;;;5.70;99.90;;;;;;5000014;28;20273;-78
2023/01/03 04:38:45;;;;;;;8.07;7.70;;;5.70;99.90;;;;;;4992037;28;20187;-78
2023/01/03 04:41:10;;;;;;;9.97;9.00;;;5.70;99.90;;;;;;5012698;28;20180;-76
2023/01/03 04:46:20;;;;;;;6.77;6.37;;;5.40;99.90;;;;;;5015219;28;20208;-77
2023/01/03 04:48:46;;;;;;;6.43;6.13;;;5.40;99.90;;;;;;5014613;28;20175;-78
2023/01/03 04:51:12;;;;;;;10.43;9.43;;;5.30;99.90;;;;;;4998175;28;20184;-77
2023/01/03 04:53:38;;;;;;;20.70;19.77;;;5.30;99.90;;;;;;4990852;28;20180;-77
2023/01/03 04:56:04;;;;;;;16.20;15.43;;;5.20;99.90;;;;;;5013334;28;20721;-77
2023/01/03 04:58:30;;;;;;;22.40;21.27;;;5.10;99.90;;;;;;4996845;28;20237;-79
2023/01/03 05:01:03;;;;;;;26.20;24.97;;;5.10;99.90;;;;;;4997499;28;20184;-78
2023/01/03 05:03:30;;;;;;;24.57;23.43;;;5.00;99.90;;;;;;4997605;28;20610;-78
2023/01/03 05:06:04;;;;;;;27.83;26.53;;;4.90;99.90;;;;;;5014399;28;20195;-78
2023/01/03 05:08:30;;;;;;;17.83;16.87;;;4.90;99.90;;;;;;5020167;28;20186;-78
2023/01/03 05:10:56;;;;;;;13.27;12.60;;;4.90;99.90;;;;;;4996647;28;20180;-78
2023/01/03 05:13:22;;;;;;;17.23;16.43;;;4.90;99.90;;;;;;5003851;23;20224;-74
2023/01/03 05:15:48;;;;;;;15.83;15.10;;;4.90;99.90;;;;;;4979257;28;20203;-75
2023/01/03 05:18:14;;;;;;;19.80;18.13;;;5.00;99.90;;;;;;4983613;28;20203;-75
2023/01/03 05:26:14;;;;;;;17.60;16.70;;;5.00;99.90;;;;;;4993697;28;20199;-75
2023/01/03 05:28:42;;;;;;;7.60;7.10;;;5.00;99.90;;;;;;4997129;28;20211;-75
2023/01/03 05:31:08;;;;;;;9.60;8.70;;;5.00;99.90;;;;;;4998533;28;20177;-75
2023/01/03 05:33:36;;;;;;;12.40;11.90;;;5.00;99.90;;;;;;4993544;28;20582;-75
2023/01/03 05:36:01;;;;;;;17.13;16.23;;;4.90;99.90;;;;;;4976772;28;20207;-76
2023/01/03 05:38:27;;;;;;;15.80;15.00;;;4.80;99.90;;;;;;4971935;28;20670;-75
2023/01/03 05:40:53;;;;;;;13.50;12.80;;;4.80;99.90;;;;;;4973775;28;20224;-76
2023/01/03 05:43:19;;;;;;;11.20;10.60;;;4.80;99.90;;;;;;4973825;28;20208;-76
2023/01/03 05:45:50;;;;;;;11.07;10.57;;;4.80;99.90;;;;;;4973108;28;20191;-75
2023/01/03 05:48:16;;;;;;;11.17;10.37;;;4.70;99.90;;;;;;4974496;28;20301;-75
2023/01/03 05:50:42;;;;;;;9.47;9.07;;;4.70;99.90;;;;;;4993189;28;20192;-75
2023/01/03 05:53:08;;;;;;;9.40;9.00;;;4.60;99.90;;;;;;4992006;28;20219;-74
2023/01/03 05:55:38;;;;;;;12.00;11.07;;;4.60;99.90;;;;;;4991881;28;20287;-75
2023/01/03 05:58:05;;;;;;;11.23;10.57;;;4.50;99.90;;;;;;4991827;28;20332;-75
2023/01/03 06:00:31;;;;;;;7.37;6.93;;;4.50;99.90;;;;;;4991028;28;20180;-75
2023/01/03 06:02:57;;;;;;;7.47;6.97;;;4.50;99.90;;;;;;4991214;28;20236;-75
2023/01/03 06:05:22;;;;;;;9.00;8.57;;;4.50;99.90;;;;;;4990728;28;20204;-75
2023/01/03 06:07:48;;;;;;;12.87;12.27;;;4.50;99.90;;;;;;4991285;28;20584;-76
2023/01/03 06:10:14;;;;;;;13.37;12.67;;;4.50;99.90;;;;;;4993039;28;20184;-74
2023/01/03 06:12:40;;;;;;;9.90;9.37;;;4.50;99.90;;;;;;4974626;28;20220;-75
2023/01/03 06:15:06;;;;;;;10.27;9.77;;;4.40;99.90;;;;;;4988307;28;20185;-74
2023/01/03 06:20:16;;;;;;;7.47;7.07;;;4.30;99.90;;;;;;4981095;28;20214;-73
2023/01/03 06:22:42;;;;;;;8.80;8.30;;;4.30;99.90;;;;;;4971065;28;20309;-73
2023/01/03 06:25:08;;;;;;;7.37;6.87;;;4.30;99.90;;;;;;4987887;28;20196;-73
2023/01/03 06:27:34;;;;;;;8.40;7.93;;;4.20;99.90;;;;;;4971946;28;20239;-73
2023/01/03 06:30:00;;;;;;;6.57;5.90;;;4.20;99.90;;;;;;4972244;28;20275;-73
2023/01/03 06:32:26;;;;;;;8.37;7.57;;;4.10;99.90;;;;;;4989807;28;20287;-73
2023/01/03 06:34:52;;;;;;;14.30;13.00;;;4.10;99.90;;;;;;4992340;28;20578;-73
2023/01/03 06:37:17;;;;;;;11.30;10.60;;;4.00;99.90;;;;;;4989019;28;20658;-73
2023/01/03 06:39:44;;;;;;;9.97;9.40;;;4.00;99.90;;;;;;4992352;28;20190;-73
2023/01/03 06:53:15;;;;;;;12.63;11.63;;;4.00;99.90;;;;;;4991202;28;20290;-73
2023/01/03 06:55:43;;;;;;;16.43;15.03;;;4.00;99.90;;;;;;5006950;28;20231;-73
2023/01/03 06:58:09;;;;;;;14.80;13.93;;;4.00;99.90;;;;;;4990983;28;20187;-74
2023/01/03 07:00:37;;;;;;;9.50;8.90;;;4.00;99.90;;;;;;4991087;28;20558;-73
2023/01/03 07:03:02;;;;;;;11.10;10.40;;;4.00;99.90;;;;;;4991881;28;20204;-73
2023/01/03 07:05:28;;;;;;;12.53;11.67;;;3.90;99.90;;;;;;4992901;28;20196;-73
2023/01/03 07:07:54;;;;;;;15.57;14.17;;;3.90;99.90;;;;;;4995783;28;20219;-73
2023/01/03 07:10:20;;;;;;;13.00;12.20;;;3.90;99.90;;;;;;4996345;28;20186;-74
2023/01/03 07:15:30;;;;;;;13.17;12.37;;;3.80;99.90;;;;;;4985638;28;20177;-73
2023/01/03 07:17:55;;;;;;;15.73;14.27;;;3.80;99.90;;;;;;4982705;28;20664;-73
2023/01/03 07:20:22;;;;;;;14.17;13.27;;;3.70;99.90;;;;;;4974065;28;20202;-74
2023/01/03 07:22:47;;;;;;;21.40;20.30;;;3.70;99.90;;;;;;4987921;28;20287;-74
2023/01/03 07:25:13;;;;;;;24.63;23.27;;;3.80;99.90;;;;;;4975276;28;20393;-74
2023/01/03 07:27:39;;;;;;;28.23;26.33;;;3.80;99.90;;;;;;4985540;28;20263;-74
2023/01/03 07:30:05;;;;;;;25.87;24.47;;;3.80;99.90;;;;;;4990149;28;20172;-74
2023/01/03 07:32:31;;;;;;;22.47;21.27;;;3.70;99.90;;;;;;4988440;28;20677;-72
2023/01/03 07:34:57;;;;;;;14.20;13.43;;;3.80;99.90;;;;;;4988992;28;20206;-73
2023/01/03 07:37:22;;;;;;;13.40;12.40;;;3.80;99.90;;;;;;4998210;28;20654;-73
2023/01/03 07:39:48;;;;;;;15.17;14.27;;;3.70;99.90;;;;;;4992936;28;20284;-73
2023/01/03 07:44:59;;;;;;;27.80;26.30;;;3.80;99.90;;;;;;4981405;28;20188;-74
2023/01/03 07:47:24;;;;;;;15.00;13.93;;;3.70;99.90;;;;;;4979924;28;20216;-73
2023/01/03 07:49:50;;;;;;;15.60;14.47;;;3.80;99.90;;;;;;4988816;28;20649;-74
2023/01/03 07:52:16;;;;;;;18.43;17.33;;;3.80;99.90;;;;;;4988651;28;20199;-74
2023/01/03 07:54:41;;;;;;;19.47;17.97;;;3.90;99.90;;;;;;5004518;28;20180;-74
2023/01/03 07:57:07;;;;;;;15.00;14.10;;;3.90;99.90;;;;;;4991120;28;20189;-73
2023/01/03 07:59:33;;;;;;;16.87;15.67;;;4.00;99.90;;;;;;4994097;28;20566;-73
2023/01/03 08:01:59;;;;;;;21.00;19.60;;;4.10;99.90;;;;;;4994405;28;20204;-73
2023/01/03 08:04:24;;;;;;;9.23;8.40;;;4.10;99.90;;;;;;4993079;28;20224;-73
2023/01/03 08:06:50;;;;;;;10.27;9.40;;;4.30;99.90;;;;;;4993222;28;20199;-75
2023/01/03 08:14:45;;;;;;;13.10;11.93;;;4.80;99.90;;;;;;4992496;28;20267;-73
2023/01/03 08:17:11;;;;;;;8.50;7.80;;;5.00;99.90;;;;;;4992160;28;20680;-78
2023/01/03 08:19:37;;;;;;;11.77;7.63;;;5.30;99.90;;;;;;4986804;28;20189;-77
2023/01/03 08:22:03;;;;;;;8.40;7.67;;;5.60;99.90;;;;;;4974322;28;20211;-77
2023/01/03 08:24:28;;;;;;;14.03;12.90;;;5.90;99.90;;;;;;4974997;28;20184;-78
2023/01/03 08:26:54;;;;;;;11.20;7.93;;;6.30;99.90;;;;;;4974363;28;20733;-76
2023/01/03 08:29:20;;;;;;;15.00;10.23;;;6.70;99.90;;;;;;4975204;28;20180;-77
2023/01/03 08:31:54;;;;;;;18.13;16.63;;;6.90;99.90;;;;;;4989633;28;20216;-78
2023/01/03 08:34:21;;;;;;;14.83;13.73;;;7.10;99.90;;;;;;4991652;28;20180;-78
2023/01/03 08:36:51;;;;;;;11.10;10.13;;;7.20;99.90;;;;;;4991814;28;20563;-77
2023/01/03 08:39:22;;;;;;;10.27;9.43;;;7.20;99.90;;;;;;4992723;28;20208;-78
2023/01/03 08:41:54;;;;;;;12.47;11.57;;;7.20;99.90;;;;;;4996176;28;20200;-78
2023/01/03 08:44:19;;;;;;;11.37;10.47;;;7.30;99.90;;;;;;4999990;28;20230;-79
2023/01/03 08:46:50;;;;;;;10.33;9.63;;;7.20;99.90;;;;;;4995692;28;20561;-78
2023/01/03 08:49:16;;;;;;;11.70;10.67;;;7.20;99.90;;;;;;5008682;28;20559;-76
2023/01/03 08:51:42;;;;;;;11.00;10.13;;;7.10;99.90;;;;;;4992137;28;21946;-77
2023/01/03 08:54:07;;;;;;;10.47;9.67;;;7.10;99.90;;;;;;4988107;28;20623;-77
2023/01/03 08:56:33;;;;;;;10.53;9.83;;;7.20;99.90;;;;;;4972698;28;20181;-76
2023/01/03 08:58:59;;;;;;;11.87;10.47;;;7.20;99.90;;;;;;4984859;28;20188;-76
2023/01/03 09:01:25;;;;;;;12.10;11.10;;;7.20;99.90;;;;;;4992710;28;20672;-77
2023/01/03 09:03:51;;;;;;;12.73;11.60;;;7.40;99.90;;;;;;4993069;28;20184;-76
2023/01/03 09:06:17;;;;;;;11.57;10.47;;;7.50;99.90;;;;;;4993582;28;20176;-76
2023/01/03 09:08:43;;;;;;;12.70;10.87;;;7.60;99.90;;;;;;4992778;28;20181;-77
2023/01/03 09:11:09;;;;;;;14.87;12.33;;;7.60;99.90;;;;;;4993570;28;20547;-76
2023/01/03 09:13:36;;;;;;;14.00;12.50;;;7.60;99.90;;;;;;4992339;28;20275;-77
2023/01/03 09:16:03;;;;;;;15.03;13.63;;;7.70;99.90;;;;;;4993909;28;20179;-76
2023/01/03 09:18:29;;;;;;;15.40;14.03;;;7.90;99.90;;;;;;4991818;28;20533;-76
2023/01/03 09:20:55;;;;;;;15.13;13.83;;;7.90;99.90;;;;;;4993226;28;20195;-76
2023/01/03 09:23:20;;;;;;;16.03;14.07;;;8.00;99.90;;;;;;4993483;28;20617;-76
2023/01/03 09:25:46;;;;;;;13.77;12.33;;;8.10;99.90;;;;;;4992884;28;20181;-76
2023/01/03 09:28:12;;;;;;;12.50;11.33;;;8.20;99.90;;;;;;4992588;28;20219;-76
2023/01/03 09:30:38;;;;;;;11.53;9.20;;;8.30;99.90;;;;;;4993212;28;20185;-76
2023/01/03 09:33:04;;;;;;;11.93;8.77;;;8.30;99.90;;;;;;4993511;28;20288;-76
2023/01/03 09:35:31;;;;;;;10.33;9.33;;;8.20;99.90;;;;;;4993946;28;20204;-75
2023/01/03 09:37:57;;;;;;;12.27;9.63;;;8.20;99.90;;;;;;4992238;28;20566;-76
2023/01/03 09:40:23;;;;;;;10.37;9.37;;;8.20;99.90;;;;;;4997044;28;20185;-77
2023/01/03 09:45:38;;;;;;;10.53;9.40;;;8.30;99.90;;;;;;4993908;28;20192;-77
2023/01/03 09:48:05;;;;;;;11.23;9.43;;;8.30;99.90;;;;;;4991240;28;20224;-76
2023/01/03 09:50:33;;;;;;;10.77;9.67;;;8.50;99.90;;;;;;4992980;28;20196;-76
2023/01/03 10:04:33;;;;;;;12.13;11.00;;;9.70;99.90;;;;;;4993020;28;20184;-77
2023/01/03 10:07:05;;;;;;;10.33;9.53;;;9.90;99.90;;;;;;4992146;28;20270;-78
2023/01/03 10:09:49;;;;;;;9.77;8.87;;;10.10;99.90;;;;;;4990561;28;20657;-72
2023/01/03 10:12:57;;;;;;;8.20;7.40;;;10.40;99.90;;;;;;4994430;28;20266;-78
2023/01/03 10:15:59;;;;;;;7.70;6.93;;;10.80;99.90;;;;;;4984418;28;20279;-73
2023/01/03 10:18:34;;;;;;;964.30;276.00;;;11.80;99.90;;;;;;4991946;28;20184;-78
2023/01/03 10:21:07;;;;;;;391.37;136.00;;;12.20;99.90;;;;;;4993660;28;20184;-79
2023/01/03 10:23:34;;;;;;;74.07;43.60;;;12.60;99.90;;;;;;4991027;28;20211;-79
2023/01/03 10:26:00;;;;;;;19.00;16.90;;;13.00;99.90;;;;;;4993082;28;20242;-71
2023/01/03 10:28:37;;;;;;;9.33;8.63;;;13.20;99.90;;;;;;4988931;28;20219;-71
2023/01/03 10:31:24;;;;;;;9.97;9.07;;;13.60;99.90;;;;;;4991087;28;20659;-71
2023/01/03 10:33:50;;;;;;;8.90;8.30;;;13.90;99.90;;;;;;4986617;28;20188;-75
2023/01/03 10:36:19;;;;;;;9.37;8.40;;;13.90;99.90;;;;;;4975491;28;20178;-77
2023/01/03 10:38:45;;;;;;;8.63;8.00;;;13.80;99.90;;;;;;4977938;28;20242;-75
2023/01/03 10:41:29;;;;;;;8.13;7.53;;;13.70;99.90;;;;;;4990445;28;20188;-76
2023/01/03 10:44:02;;;;;;;9.23;7.90;;;14.20;99.90;;;;;;4991658;28;20188;-76
2023/01/03 10:46:29;;;;;;;8.37;7.87;;;14.20;99.90;;;;;;4991486;28;20176;-74
2023/01/03 10:49:10;;;;;;;14.47;13.00;;;13.90;99.90;;;;;;4989883;28;20188;-74
2023/01/03 10:51:56;;;;;;;12.23;11.20;;;13.50;99.90;;;;;;4991194;28;20737;-75
2023/01/03 10:54:30;;;;;;;7.60;6.93;;;13.30;99.90;;;;;;4986400;28;20623;-76
2023/01/03 10:56:56;;;;;;;7.43;7.03;;;13.30;99.90;;;;;;4989774;28;20188;-76
2023/01/03 10:59:25;;;;;;;7.23;6.60;;;13.00;99.90;;;;;;4990017;28;20235;-76
2023/01/03 11:01:59;;;;;;;6.47;6.07;;;13.00;99.90;;;;;;4988783;28;20215;-75
2023/01/03 11:04:25;;;;;;;8.87;8.27;;;13.00;99.90;;;;;;4987641;28;20275;-76
2023/01/03 11:07:06;;;;;;;8.47;7.97;;;13.60;99.90;;;;;;4986716;28;20205;-76
2023/01/03 11:09:50;;;;;;;7.03;6.53;;;14.60;99.90;;;;;;4989775;28;20223;-76
2023/01/03 11:12:36;;;;;;;7.67;6.83;;;15.70;99.90;;;;;;5015011;22;20231;-72
2023/01/03 11:15:36;;;;;;;13.73;12.93;;;16.80;99.90;;;;;;5009248;28;20274;-72
2023/01/03 11:18:05;;;;;;;15.17;14.27;;;17.30;99.90;;;;;;5008525;28;20184;-73
2023/01/03 11:20:56;;;;;;;23.20;21.90;;;17.30;99.90;;;;;;5009114;28;20830;-73
2023/01/03 11:23:38;;;;;;;28.63;27.03;;;17.20;99.90;;;;;;5015064;28;20290;-73
2023/01/03 11:26:37;;;;;;;24.77;23.40;;;18.70;99.90;;;;;;5030654;28;20187;-72
2023/01/03 11:29:37;;;;;;;21.53;20.20;;;18.90;99.90;;;;;;5029952;28;20197;-73
2023/01/03 11:32:22;;;;;;;15.80;14.70;;;19.00;99.90;;;;;;5029356;28;20191;-74
2023/01/03 11:35:12;;;;;;;13.80;12.90;;;19.00;99.90;;;;;;5030919;28;20541;-74
2023/01/03 11:38:19;;;;;;;18.63;17.57;;;20.10;99.90;;;;;;5028367;28;20217;-73
2023/01/03 11:41:03;;;;;;;12.43;11.73;;;21.10;98.90;;;;;;4965696;28;20185;-72
2023/01/03 11:44:05;;;;;;;12.63;11.63;;;21.20;96.80;;;;;;4969011;28;20220;-72
2023/01/03 11:46:44;;;;;;;7.40;6.90;;;21.80;95.90;;;;;;5020900;28;20738;-72
2023/01/03 11:49:41;;;;;;;8.00;7.43;;;21.80;94.10;;;;;;5028855;28;20179;-72
2023/01/03 11:52:29;;;;;;;10.67;9.97;;;22.00;93.60;;;;;;5029589;28;20282;-72
2023/01/03 11:55:13;;;;;;;7.40;6.90;;;21.90;92.50;;;;;;5028087;28;20568;-72
2023/01/03 11:57:54;;;;;;;11.43;10.83;;;21.90;92.30;;;;;;5028133;28;20258;-72
2023/01/03 12:00:50;;;;;;;10.27;9.57;;;22.70;90.90;;;;;;5028287;28;20186;-72
2023/01/03 12:03:18;;;;;;;10.20;9.70;;;22.50;90.40;;;;;;5029657;28;20207;-72
2023/01/03 12:05:50;;;;;;;9.73;8.67;;;21.50;87.90;;;;;;5028433;28;20179;-72
2023/01/03 12:08:34;;;;;;;7.70;7.20;;;19.70;92.00;;;;;;5028760;28;20219;-71
2023/01/03 12:11:12;;;;;;;8.57;8.07;;;19.10;94.40;;;;;;5029844;28;20187;-74
2023/01/03 12:14:04;;;;;;;9.00;8.50;;;20.40;92.90;;;;;;5029609;28;20299;-72
2023/01/03 12:16:38;;;;;;;9.07;8.57;;;20.70;91.50;;;;;;5029638;28;20190;-72
2023/01/03 12:19:17;;;;;;;8.73;8.33;;;21.50;90.90;;;;;;5027762;28;20648;-71
2023/01/03 12:21:48;;;;;;;9.20;8.50;;;22.00;88.50;;;;;;5026310;28;20182;-72
2023/01/03 12:24:29;;;;;;;11.47;10.90;;;21.10;87.70;;;;;;5028021;28;20663;-72
2023/01/03 12:27:04;;;;;;;11.63;11.17;;;20.70;88.70;;;;;;5028128;28;20341;-73
2023/01/03 12:29:42;;;;;;;15.30;14.43;;;20.70;89.60;;;;;;5029455;28;20328;-73
2023/01/03 12:32:17;;;;;;;14.43;13.73;;;20.70;89.20;;;;;;5029459;28;20273;-72
2023/01/03 12:34:55;;;;;;;17.53;16.63;;;20.50;89.50;;;;;;5028230;28;20183;-73
2023/01/03 12:37:29;;;;;;;16.73;15.83;;;21.40;85.00;;;;;;5028831;28;20183;-73
2023/01/03 12:40:13;;;;;;;16.33;15.47;;;20.80;86.10;;;;;;5029664;28;20206;-73
2023/01/03 12:42:39;;;;;;;15.23;14.53;;;20.60;86.00;;;;;;5031094;28;20230;-78
2023/01/03 12:45:09;;;;;;;12.13;11.63;;;20.70;83.50;;;;;;5034672;28;20174;-77
2023/01/03 12:48:03;;;;;;;17.00;16.20;;;20.80;82.00;;;;;;5032496;28;20213;-77
2023/01/03 12:50:48;;;;;;;11.30;10.53;;;21.00;83.40;;;;;;5033050;28;20186;-77
2023/01/03 12:53:32;;;;;;;16.30;15.50;;;21.60;79.50;;;;;;5034342;28;20210;-77
2023/01/03 12:56:13;;;;;;;9.27;8.87;;;20.90;83.10;;;;;;5035950;28;20213;-77
2023/01/03 12:59:20;;;;;;;13.43;12.70;;;21.10;81.30;;;;;;5033299;28;20195;-76
2023/01/03 13:01:57;;;;;;;15.73;14.93;;;20.30;82.60;;;;;;5032866;28;20175;-76
2023/01/03 13:04:37;;;;;;;11.13;10.63;;;20.60;84.30;;;;;;5032096;28;20723;-77
2023/01/03 13:07:18;;;;;;;15.03;14.10;;;20.20;83.30;;;;;;5035461;28;20253;-76
2023/01/03 13:09:49;;;;;;;11.23;10.73;;;20.20;83.60;;;;;;5031763;28;20179;-76
2023/01/03 13:12:22;;;;;;;12.53;11.97;;;20.10;84.00;;;;;;5033158;28;20265;-76
2023/01/03 13:14:56;;;;;;;13.37;12.53;;;19.40;85.50;;;;;;5032205;28;20183;-77
2023/01/03 13:17:25;;;;;;;17.87;17.00;;;19.40;85.60;;;;;;5032435;28;20183;-76
2023/01/03 13:19:58;;;;;;;23.47;22.37;;;19.20;86.80;;;;;;5033273;28;20193;-78
2023/01/03 13:23:05;;;;;;;23.83;22.63;;;17.50;90.20;;;;;;5033056;28;20245;-77
2023/01/03 13:25:33;;;;;;;20.43;19.33;;;18.00;90.40;;;;;;4995773;28;20305;-78
2023/01/03 13:28:20;;;;;;;20.37;19.33;;;18.90;88.00;;;;;;5032859;28;20213;-75
2023/01/03 13:30:46;;;;;;;20.07;19.10;;;19.80;85.40;;;;;;5017143;28;20272;-76
2023/01/03 13:33:15;;;;;;;13.50;12.90;;;21.30;82.40;;;;;;5031896;28;20206;-78
2023/01/03 13:35:44;;;;;;;11.07;10.47;;;21.70;80.10;;;;;;5031437;28;20182;-78
2023/01/03 13:38:36;;;;;;;10.40;9.90;;;21.30;79.30;;;;;;5032122;28;20274;-75
2023/01/03 13:41:12;;;;;;;9.17;8.70;;;21.30;81.50;;;;;;5030905;28;20183;-76
2023/01/03 13:43:38;;;;;;;7.23;6.73;;;21.20;79.40;;;;;;5032661;28;20207;-77
2023/01/03 13:46:23;;;;;;;6.20;5.73;;;21.10;78.00;;;;;;5030886;28;20194;-76
2023/01/03 13:49:06;;;;;;;4.40;4.10;;;21.80;76.20;;;;;;5031362;28;20648;-76
2023/01/03 13:51:32;;;;;;;4.00;3.80;;;21.90;76.00;;;;;;5013188;28;20265;-77
2023/01/03 13:54:03;;;;;;;4.57;4.37;;;22.00;77.60;;;;;;5013177;28;20261;-78
2023/01/03 13:56:51;;;;;;;4.50;4.30;;;21.80;75.90;;;;;;5014497;28;20267;-78
2023/01/03 13:59:34;;;;;;;4.90;4.63;;;21.10;78.70;;;;;;5012824;28;20549;-77
2023/01/03 14:02:09;;;;;;;4.80;4.60;;;21.60;75.20;;;;;;5031451;28;20187;-76
2023/01/03 14:04:45;;;;;;;4.97;4.60;;;21.20;78.40;;;;;;5028911;28;20182;-77
2023/01/03 14:07:29;;;;;;;4.50;4.20;;;20.50;78.50;;;;;;5030045;28;20354;-76
2023/01/03 14:10:32;;;;;;;4.10;3.90;;;19.90;78.10;;;;;;5011022;28;20546;-76
2023/01/03 14:13:32;;;;;;;5.20;4.77;;;20.20;78.70;;;;;;5023275;28;20211;-77
2023/01/03 14:16:10;;;;;;;5.77;5.47;;;20.70;80.00;;;;;;5014016;28;20184;-77
2023/01/03 14:18:37;;;;;;;6.43;5.87;;;20.60;78.20;;;;;;5018860;28;20180;-77